createdAt,value
2017-08-26T00:00:35.734Z,99.40
2017-08-26T00:03:04.006Z,99.00
2017-08-26T00:05:32.540Z,98.90
2017-08-26T00:08:00.983Z,98.70
2017-08-26T00:10:29.433Z,98.70
2017-08-26T00:12:57.982Z,98.80
2017-08-26T00:15:26.441Z,98.90
2017-08-26T00:17:54.906Z,99.20
2017-08-26T00:20:23.450Z,99.40
2017-08-26T00:22:51.929Z,99.80
2017-08-26T00:25:21.282Z,99.90
2017-08-26T00:27:49.779Z,99.90
2017-08-26T00:30:21.063Z,99.90
2017-08-26T00:32:49.587Z,99.80
2017-08-26T00:35:18.085Z,99.40
2017-08-26T00:37:46.531Z,99.20
2017-08-26T00:40:14.989Z,99.40
2017-08-26T00:42:43.658Z,99.10
2017-08-26T00:45:12.154Z,99.10
2017-08-26T00:47:40.690Z,99.30
2017-08-26T00:50:09.143Z,99.00
2017-08-26T00:52:37.632Z,99.20
2017-08-26T00:55:06.129Z,99.30
2017-08-26T00:57:34.621Z,99.40
2017-08-26T01:00:02.999Z,99.30
2017-08-26T01:02:31.481Z,98.90
2017-08-26T01:04:59.605Z,98.70
2017-08-26T01:07:32.746Z,98.50
2017-08-26T01:10:01.224Z,98.50
2017-08-26T01:12:29.715Z,98.50
2017-08-26T01:14:58.207Z,98.50
2017-08-26T01:17:26.782Z,98.60
2017-08-26T01:19:54.886Z,98.90
2017-08-26T01:22:23.033Z,98.50
2017-08-26T01:24:51.581Z,98.70
2017-08-26T01:27:20.042Z,98.40
2017-08-26T01:29:48.494Z,98.40
2017-08-26T01:32:16.974Z,97.70
2017-08-26T01:34:45.422Z,97.50
2017-08-26T01:37:13.906Z,97.60
2017-08-26T01:39:42.394Z,97.40
2017-08-26T01:42:10.880Z,97.50
2017-08-26T01:44:39.357Z,97.50
2017-08-26T01:47:07.851Z,97.70
2017-08-26T01:49:36.315Z,97.90
2017-08-26T01:52:04.802Z,97.90
2017-08-26T01:54:33.379Z,98.20
2017-08-26T01:57:01.830Z,98.40
2017-08-26T01:59:30.314Z,98.40
2017-08-26T02:01:58.822Z,98.70
2017-08-26T02:04:27.274Z,98.90
2017-08-26T02:06:55.762Z,99.20
2017-08-26T02:09:24.269Z,99.20
2017-08-26T02:11:52.753Z,99.50
2017-08-26T02:14:21.239Z,99.80
2017-08-26T02:16:49.756Z,99.60
2017-08-26T02:19:18.242Z,99.90
2017-08-26T02:21:46.746Z,99.90
2017-08-26T02:24:15.234Z,99.90
2017-08-26T02:26:43.722Z,99.90
2017-08-26T02:29:12.249Z,99.90
2017-08-26T02:31:40.691Z,99.90
2017-08-26T02:34:09.182Z,99.90
2017-08-26T02:36:37.648Z,99.90
2017-08-26T02:39:06.130Z,99.90
2017-08-26T02:41:34.588Z,99.90
2017-08-26T02:44:03.056Z,99.90
2017-08-26T02:46:31.601Z,99.90
2017-08-26T02:49:00.102Z,99.90
2017-08-26T02:51:28.602Z,99.90
2017-08-26T02:53:57.141Z,99.90
2017-08-26T02:56:25.637Z,99.90
2017-08-26T02:58:54.178Z,99.90
2017-08-26T03:01:22.753Z,99.90
2017-08-26T03:03:51.236Z,99.90
2017-08-26T03:06:19.713Z,99.90
2017-08-26T03:08:48.270Z,99.90
2017-08-26T03:11:16.762Z,99.90
2017-08-26T03:13:45.252Z,99.90
2017-08-26T03:16:13.733Z,99.90
2017-08-26T03:18:42.202Z,99.90
2017-08-26T03:21:10.708Z,99.50
2017-08-26T03:23:39.169Z,99.10
2017-08-26T03:26:07.638Z,99.40
2017-08-26T03:28:36.108Z,99.30
2017-08-26T03:31:04.606Z,99.10
2017-08-26T03:33:33.163Z,99.00
2017-08-26T03:36:02.431Z,98.70
2017-08-26T03:38:30.930Z,98.70
2017-08-26T03:40:59.569Z,98.80
2017-08-26T03:43:28.091Z,98.80
2017-08-26T03:45:56.565Z,98.90
2017-08-26T03:48:25.847Z,99.30
2017-08-26T03:50:54.297Z,99.30
2017-08-26T03:53:22.742Z,99.40
2017-08-26T03:55:52.059Z,99.60
2017-08-26T03:58:20.563Z,99.60
2017-08-26T04:00:49.065Z,99.30
2017-08-26T04:03:17.531Z,99.30
2017-08-26T04:05:46.054Z,99.00
2017-08-26T04:08:14.738Z,99.30
2017-08-26T04:10:43.266Z,99.30
2017-08-26T04:13:11.393Z,99.50
2017-08-26T04:15:39.880Z,99.80
2017-08-26T04:18:08.386Z,99.90
2017-08-26T04:20:36.854Z,99.90
2017-08-26T04:23:05.364Z,99.80
2017-08-26T04:25:33.922Z,99.90
2017-08-26T04:28:02.404Z,99.90
2017-08-26T04:30:30.875Z,99.90
2017-08-26T04:32:59.450Z,99.90
2017-08-26T04:35:28.000Z,99.50
2017-08-26T04:37:56.538Z,98.50
2017-08-26T04:40:25.122Z,97.80
2017-08-26T04:42:53.582Z,97.30
2017-08-26T04:45:22.058Z,96.50
2017-08-26T04:47:50.562Z,96.40
2017-08-26T04:50:19.117Z,96.10
2017-08-26T04:52:47.657Z,96.10
2017-08-26T04:55:16.161Z,96.00
2017-08-26T04:57:44.683Z,96.00
2017-08-26T05:00:13.248Z,95.80
2017-08-26T05:02:41.798Z,95.50
2017-08-26T05:05:10.310Z,95.30
2017-08-26T05:07:38.871Z,95.30
2017-08-26T05:10:07.369Z,95.40
2017-08-26T05:12:35.864Z,95.10
2017-08-26T05:15:04.473Z,94.90
2017-08-26T05:17:32.942Z,95.00
2017-08-26T05:20:01.476Z,94.60
2017-08-26T05:22:30.019Z,94.30
2017-08-26T05:24:58.486Z,94.30
2017-08-26T05:27:27.076Z,94.20
2017-08-26T05:29:55.642Z,94.50
2017-08-26T05:32:24.103Z,94.50
2017-08-26T05:34:52.549Z,93.80
2017-08-26T05:37:21.024Z,93.70
2017-08-26T05:39:49.575Z,93.00
2017-08-26T05:42:18.072Z,93.30
2017-08-26T05:44:46.643Z,91.90
2017-08-26T05:47:15.126Z,91.70
2017-08-26T05:49:43.628Z,91.70
2017-08-26T05:52:12.169Z,91.50
2017-08-26T05:54:40.633Z,91.60
2017-08-26T05:57:09.111Z,90.70
2017-08-26T05:59:37.642Z,90.50
2017-08-26T06:02:05.922Z,90.40
2017-08-26T06:04:34.442Z,90.40
2017-08-26T06:07:03.911Z,90.20
2017-08-26T06:09:32.386Z,90.20
2017-08-26T06:12:00.870Z,89.50
2017-08-26T06:14:29.345Z,89.80
2017-08-26T06:16:57.845Z,89.60
2017-08-26T06:19:26.354Z,88.10
2017-08-26T06:21:54.903Z,87.40
2017-08-26T06:24:23.378Z,87.40
2017-08-26T06:26:52.294Z,87.30
2017-08-26T06:29:20.826Z,86.00
2017-08-26T06:31:49.276Z,84.70
2017-08-26T06:34:18.387Z,86.20
2017-08-26T06:36:46.887Z,84.90
2017-08-26T06:39:15.617Z,85.40
2017-08-26T06:41:44.123Z,81.60
2017-08-26T06:44:12.592Z,81.20
2017-08-26T06:46:41.072Z,81.20
2017-08-26T06:49:09.555Z,79.20
2017-08-26T06:51:38.055Z,78.60
2017-08-26T06:54:06.507Z,76.40
2017-08-26T06:56:35.023Z,74.10
2017-08-26T06:59:03.571Z,70.50
2017-08-26T07:01:32.067Z,67.40
2017-08-26T07:04:00.584Z,68.20
2017-08-26T07:06:29.109Z,66.20
2017-08-26T07:08:57.599Z,66.40
2017-08-26T07:11:26.140Z,68.10
2017-08-26T07:13:54.668Z,66.80
2017-08-26T07:16:23.147Z,66.50
2017-08-26T07:18:52.518Z,66.40
2017-08-26T07:21:21.006Z,66.50
2017-08-26T07:23:49.470Z,64.50
2017-08-26T07:26:18.024Z,67.20
2017-08-26T07:28:46.489Z,65.20
2017-08-26T07:31:14.969Z,63.00
2017-08-26T07:36:19.590Z,62.10
2017-08-26T07:38:48.079Z,64.00
2017-08-26T07:41:16.607Z,60.80
2017-08-26T07:43:45.070Z,59.90
2017-08-26T07:46:13.536Z,57.10
2017-08-26T07:48:42.040Z,57.20
2017-08-26T07:51:10.512Z,52.30
2017-08-26T07:53:38.994Z,53.10
2017-08-26T07:56:07.555Z,49.00
2017-08-26T07:58:36.298Z,47.70
2017-08-26T08:01:07.903Z,47.20
2017-08-26T08:03:36.350Z,44.80
2017-08-26T08:06:04.871Z,45.70
2017-08-26T08:08:33.338Z,46.20
2017-08-26T08:11:01.811Z,44.50
2017-08-26T08:13:30.351Z,45.70
2017-08-26T08:16:01.156Z,44.80
2017-08-26T08:18:29.647Z,46.50
2017-08-26T08:20:58.191Z,45.50
2017-08-26T08:23:26.692Z,42.00
2017-08-26T08:25:55.153Z,39.50
2017-08-26T08:28:23.635Z,40.30
2017-08-26T08:30:52.166Z,41.80
2017-08-26T08:33:20.680Z,39.30
2017-08-26T08:35:52.355Z,40.00
2017-08-26T08:38:20.843Z,39.70
2017-08-26T08:40:49.333Z,40.30
2017-08-26T08:43:18.063Z,40.40
2017-08-26T08:45:46.591Z,36.00
2017-08-26T08:48:20.051Z,37.70
2017-08-26T08:50:48.504Z,38.70
2017-08-26T08:53:16.992Z,37.60
2017-08-26T08:55:45.294Z,37.60
2017-08-26T08:58:13.782Z,35.80
2017-08-26T09:00:42.290Z,36.60
2017-08-26T09:03:10.791Z,38.40
2017-08-26T09:05:39.284Z,33.60
2017-08-26T09:08:07.802Z,38.20
2017-08-26T09:10:36.274Z,37.00
2017-08-26T09:13:04.786Z,37.30
2017-08-26T09:15:33.258Z,33.70
2017-08-26T09:18:01.822Z,36.90
2017-08-26T09:20:30.273Z,31.20
2017-08-26T09:22:58.756Z,32.30
2017-08-26T09:25:27.262Z,33.20
2017-08-26T09:27:55.752Z,34.40
2017-08-26T09:30:24.215Z,33.20
2017-08-26T09:32:52.691Z,32.70
2017-08-26T09:35:21.234Z,33.20
2017-08-26T09:37:49.722Z,34.30
2017-08-26T09:40:18.182Z,31.40
2017-08-26T09:42:46.639Z,31.10
2017-08-26T09:45:15.082Z,33.10
2017-08-26T09:47:44.326Z,33.20
2017-08-26T09:50:12.596Z,33.20
2017-08-26T09:52:41.058Z,30.00
2017-08-26T09:55:09.537Z,31.50
2017-08-26T09:57:38.050Z,32.10
2017-08-26T10:00:06.510Z,32.70
2017-08-26T10:02:34.988Z,33.30
2017-08-26T10:05:03.472Z,28.10
2017-08-26T10:07:31.925Z,31.90
2017-08-26T10:10:01.155Z,31.40
2017-08-26T10:12:29.596Z,31.30
2017-08-26T10:14:58.061Z,31.50
2017-08-26T10:17:26.553Z,31.10
2017-08-26T10:19:55.011Z,34.00
2017-08-26T10:22:23.496Z,29.20
2017-08-26T10:24:51.971Z,29.50
2017-08-26T10:27:20.667Z,29.60
2017-08-26T10:29:48.965Z,29.90
2017-08-26T10:32:17.255Z,29.60
2017-08-26T10:34:45.541Z,30.90
2017-08-26T10:37:13.864Z,29.10
2017-08-26T10:39:42.122Z,32.10
2017-08-26T10:42:10.426Z,31.40
2017-08-26T10:44:38.671Z,28.80
2017-08-26T10:47:07.730Z,28.80
2017-08-26T10:49:36.013Z,28.90
2017-08-26T10:52:04.338Z,29.20
2017-08-26T10:54:32.801Z,31.60
2017-08-26T10:57:01.846Z,35.10
2017-08-26T10:59:30.297Z,35.00
2017-08-26T11:01:58.806Z,33.70
2017-08-26T11:04:27.268Z,37.10
2017-08-26T11:06:55.712Z,33.60
2017-08-26T11:09:24.227Z,32.70
2017-08-26T11:11:52.701Z,37.50
2017-08-26T11:14:21.157Z,32.40
2017-08-26T11:16:49.673Z,32.40
2017-08-26T11:19:18.133Z,34.90
2017-08-26T11:21:46.560Z,34.00
2017-08-26T11:24:15.121Z,34.50
2017-08-26T11:26:43.622Z,34.60
2017-08-26T11:29:12.197Z,36.90
2017-08-26T11:31:40.643Z,39.00
2017-08-26T11:34:09.097Z,37.10
2017-08-26T11:36:37.568Z,39.80
2017-08-26T11:39:06.060Z,37.30
2017-08-26T11:41:34.530Z,44.40
2017-08-26T11:44:03.039Z,39.20
2017-08-26T11:46:31.706Z,40.80
2017-08-26T11:49:00.157Z,41.80
2017-08-26T11:51:28.651Z,40.60
2017-08-26T11:53:57.091Z,42.40
2017-08-26T11:56:25.763Z,40.20
2017-08-26T11:58:54.215Z,40.70
2017-08-26T12:01:22.667Z,40.20
2017-08-26T12:03:51.138Z,44.80
2017-08-26T12:06:19.627Z,43.00
2017-08-26T12:08:48.139Z,43.90
2017-08-26T12:11:16.572Z,40.20
2017-08-26T12:13:45.089Z,38.80
2017-08-26T12:16:13.541Z,42.30
2017-08-26T12:18:42.006Z,42.10
2017-08-26T12:21:10.486Z,39.70
2017-08-26T12:23:39.715Z,36.90
2017-08-26T12:26:08.169Z,36.90
2017-08-26T12:28:36.700Z,38.20
2017-08-26T12:31:05.157Z,42.10
2017-08-26T12:33:33.614Z,41.60
2017-08-26T12:36:02.091Z,40.10
2017-08-26T12:38:30.550Z,38.50
2017-08-26T12:40:58.827Z,38.40
2017-08-26T12:43:27.289Z,38.20
2017-08-26T12:45:55.733Z,37.60
2017-08-26T12:48:24.190Z,38.80
2017-08-26T12:50:52.658Z,38.50
2017-08-26T12:53:21.115Z,39.00
2017-08-26T12:55:49.562Z,38.70
2017-08-26T12:58:18.061Z,39.00
2017-08-26T13:00:46.551Z,39.80
2017-08-26T13:03:15.056Z,40.00
2017-08-26T13:05:43.575Z,40.50
2017-08-26T13:08:11.828Z,39.30
2017-08-26T13:10:40.287Z,39.20
2017-08-26T13:13:08.777Z,41.40
2017-08-26T13:15:37.230Z,41.90
2017-08-26T13:18:05.702Z,44.80
2017-08-26T13:20:35.018Z,45.90
2017-08-26T13:23:03.470Z,46.00
2017-08-26T13:25:31.914Z,42.20
2017-08-26T13:28:00.373Z,42.80
2017-08-26T13:30:28.829Z,42.70
2017-08-26T13:32:57.345Z,43.40
2017-08-26T13:35:25.841Z,46.00
2017-08-26T13:37:54.328Z,43.50
2017-08-26T13:40:22.814Z,43.70
2017-08-26T13:42:51.316Z,44.10
2017-08-26T13:45:19.888Z,48.20
2017-08-26T13:47:48.370Z,46.50
2017-08-26T13:50:16.822Z,46.00
2017-08-26T13:52:45.299Z,45.80
2017-08-26T13:55:13.794Z,47.50
2017-08-26T13:57:42.242Z,40.70
2017-08-26T14:00:10.761Z,44.60
2017-08-26T14:02:39.192Z,46.50
2017-08-26T14:05:07.687Z,42.70
2017-08-26T14:07:36.169Z,45.80
2017-08-26T14:10:04.611Z,45.20
2017-08-26T14:12:33.432Z,49.50
2017-08-26T14:15:01.969Z,48.00
2017-08-26T14:17:30.409Z,44.60
2017-08-26T14:19:58.871Z,50.60
2017-08-26T14:22:28.101Z,55.90
2017-08-26T14:24:56.578Z,55.80
2017-08-26T14:27:25.042Z,57.80
2017-08-26T14:29:53.534Z,57.80
2017-08-26T14:32:22.027Z,55.90
2017-08-26T14:34:50.466Z,56.40
2017-08-26T14:37:18.926Z,55.80
2017-08-26T14:39:47.378Z,56.10
2017-08-26T14:42:15.824Z,57.00
2017-08-26T14:44:44.384Z,56.60
2017-08-26T14:47:12.841Z,57.10
2017-08-26T14:49:41.321Z,60.80
2017-08-26T14:52:09.806Z,61.90
2017-08-26T14:54:38.254Z,60.00
2017-08-26T14:57:06.770Z,62.90
2017-08-26T14:59:35.222Z,59.50
2017-08-26T15:02:03.704Z,59.80
2017-08-26T15:04:32.174Z,61.10
2017-08-26T15:07:00.642Z,56.70
2017-08-26T15:09:29.101Z,59.20
2017-08-26T15:11:57.532Z,59.10
2017-08-26T15:14:26.066Z,60.80
2017-08-26T15:16:54.567Z,60.80
2017-08-26T15:19:23.018Z,60.50
2017-08-26T15:21:51.539Z,62.40
2017-08-26T15:24:19.977Z,63.50
2017-08-26T15:26:48.437Z,65.20
2017-08-26T15:29:16.898Z,67.70
2017-08-26T15:31:47.412Z,68.90
2017-08-26T15:34:16.689Z,75.10
2017-08-26T15:36:45.147Z,75.20
2017-08-26T15:39:13.598Z,77.00
2017-08-26T15:41:42.866Z,75.30
2017-08-26T15:44:11.331Z,75.30
2017-08-26T15:46:39.823Z,73.80
2017-08-26T15:49:08.371Z,73.70
2017-08-26T15:51:36.838Z,74.60
2017-08-26T15:54:05.281Z,77.30
2017-08-26T15:56:33.780Z,75.50
2017-08-26T15:59:02.217Z,76.50
2017-08-26T16:01:30.678Z,75.40
2017-08-26T16:03:59.171Z,76.90
2017-08-26T16:06:27.635Z,78.00
2017-08-26T16:08:56.140Z,79.50
2017-08-26T16:11:24.707Z,80.40
2017-08-26T16:13:52.958Z,78.90
2017-08-26T16:16:21.393Z,77.90
2017-08-26T16:18:49.898Z,76.70
2017-08-26T16:21:18.349Z,76.70
2017-08-26T16:23:46.822Z,77.10
2017-08-26T16:26:15.312Z,77.40
2017-08-26T16:28:43.801Z,76.90
2017-08-26T16:31:12.296Z,73.60
2017-08-26T16:33:40.770Z,73.80
2017-08-26T16:36:09.200Z,71.80
2017-08-26T16:38:37.514Z,75.80
2017-08-26T16:41:06.042Z,78.80
2017-08-26T16:43:34.498Z,81.20
2017-08-26T16:46:02.946Z,83.40
2017-08-26T16:48:31.418Z,84.10
2017-08-26T16:50:59.921Z,86.00
2017-08-26T16:53:28.394Z,85.00
2017-08-26T16:55:56.919Z,86.70
2017-08-26T16:58:25.379Z,85.80
2017-08-26T17:00:53.883Z,87.20
2017-08-26T17:03:22.347Z,89.70
2017-08-26T17:05:50.783Z,89.70
2017-08-26T17:08:19.325Z,89.90
2017-08-26T17:10:47.822Z,90.00
2017-08-26T17:13:16.353Z,89.70
2017-08-26T17:15:45.069Z,90.10
2017-08-26T17:18:13.797Z,90.00
2017-08-26T17:20:42.245Z,90.60
2017-08-26T17:23:10.729Z,90.40
2017-08-26T17:25:39.204Z,90.70
2017-08-26T17:28:07.695Z,91.10
2017-08-26T17:30:36.181Z,91.20
2017-08-26T17:33:04.717Z,91.40
2017-08-26T17:35:33.166Z,91.70
2017-08-26T17:38:01.600Z,92.20
2017-08-26T17:40:30.118Z,92.30
2017-08-26T17:42:58.627Z,92.40
2017-08-26T17:45:27.175Z,92.90
2017-08-26T17:47:55.711Z,92.70
2017-08-26T17:50:24.230Z,92.60
2017-08-26T17:52:52.730Z,92.70
2017-08-26T17:55:21.333Z,92.90
2017-08-26T17:57:49.836Z,93.30
2017-08-26T18:00:18.336Z,93.20
2017-08-26T18:02:47.605Z,94.10
2017-08-26T18:05:16.137Z,94.00
2017-08-26T18:07:44.726Z,93.90
2017-08-26T18:10:13.226Z,94.00
2017-08-26T18:12:41.720Z,94.40
2017-08-26T18:15:10.223Z,94.20
2017-08-26T18:17:38.824Z,94.70
2017-08-26T18:20:07.360Z,94.60
2017-08-26T18:22:35.843Z,94.30
2017-08-26T18:25:04.330Z,94.50
2017-08-26T18:27:32.867Z,94.70
2017-08-26T18:30:01.336Z,94.40
2017-08-26T18:32:29.866Z,94.60
2017-08-26T18:34:58.422Z,95.00
2017-08-26T18:37:26.945Z,95.10
2017-08-26T18:39:55.550Z,94.90
2017-08-26T18:42:24.123Z,95.10
2017-08-26T18:44:53.144Z,95.40
2017-08-26T18:47:21.670Z,95.60
2017-08-26T18:49:50.365Z,95.70
2017-08-26T18:52:19.057Z,95.80
2017-08-26T18:54:47.644Z,95.60
2017-08-26T18:57:16.151Z,95.70
2017-08-26T18:59:44.666Z,96.30
2017-08-26T19:02:13.199Z,96.10
2017-08-26T19:04:41.688Z,96.30
2017-08-26T19:07:10.208Z,96.20
2017-08-26T19:09:38.699Z,96.20
2017-08-26T19:12:07.215Z,96.70
2017-08-26T19:14:35.798Z,97.10
2017-08-26T19:17:04.347Z,96.90
2017-08-26T19:19:32.838Z,97.00
2017-08-26T19:22:01.379Z,97.30
2017-08-26T19:24:29.895Z,97.10
2017-08-26T19:26:58.378Z,97.20
2017-08-26T19:29:26.942Z,97.40
2017-08-26T19:31:55.444Z,97.30
2017-08-26T19:34:23.619Z,97.20
2017-08-26T19:36:52.159Z,97.50
2017-08-26T19:39:20.655Z,97.50
2017-08-26T19:41:49.172Z,97.70
2017-08-26T19:44:17.936Z,97.90
2017-08-26T19:46:46.460Z,98.10
2017-08-26T19:49:14.938Z,97.90
2017-08-26T19:51:43.459Z,97.90
2017-08-26T19:54:11.941Z,97.80
2017-08-26T19:56:40.433Z,98.20
2017-08-26T19:59:08.779Z,98.50
2017-08-26T20:01:37.251Z,98.70
2017-08-26T20:04:05.747Z,98.90
2017-08-26T20:06:34.232Z,98.80
2017-08-26T20:09:02.706Z,98.60
2017-08-26T20:11:31.222Z,98.80
2017-08-26T20:13:59.766Z,98.90
2017-08-26T20:16:28.289Z,99.20
2017-08-26T20:18:56.806Z,99.40
2017-08-26T20:21:25.343Z,99.70
2017-08-26T20:23:54.016Z,99.90
2017-08-26T20:26:22.551Z,99.30
2017-08-26T20:28:51.102Z,99.40
2017-08-26T20:31:19.605Z,99.30
2017-08-26T20:33:47.948Z,99.80
2017-08-26T20:36:16.298Z,99.50
2017-08-26T20:38:44.610Z,99.80
2017-08-26T20:41:13.087Z,99.90
2017-08-26T20:43:41.594Z,99.90
2017-08-26T20:46:10.190Z,99.90
2017-08-26T20:48:38.687Z,99.90
2017-08-26T20:51:07.172Z,99.90
2017-08-26T20:53:35.714Z,99.80
2017-08-26T20:56:04.239Z,99.90
2017-08-26T20:58:32.563Z,99.90
2017-08-26T21:01:00.874Z,99.90
2017-08-26T21:03:29.346Z,99.90
2017-08-26T21:05:57.623Z,99.90
2017-08-26T21:08:26.159Z,99.90
2017-08-26T21:10:54.655Z,99.90
2017-08-26T21:13:23.183Z,99.90
2017-08-26T21:15:51.715Z,99.90
2017-08-26T21:18:20.234Z,99.90
2017-08-26T21:20:48.742Z,99.90
2017-08-26T21:23:17.234Z,99.90
2017-08-26T21:25:45.730Z,99.90
2017-08-26T21:28:14.258Z,99.90
2017-08-26T21:30:42.795Z,99.90
2017-08-26T21:33:11.322Z,99.90
2017-08-26T21:35:39.856Z,99.70
2017-08-26T21:38:09.253Z,98.70
2017-08-26T21:40:37.872Z,98.70
2017-08-26T21:43:07.115Z,99.00
2017-08-26T21:45:35.647Z,98.80
2017-08-26T21:48:04.128Z,99.00
2017-08-26T21:50:32.622Z,99.60
2017-08-26T21:53:01.138Z,99.60
2017-08-26T21:55:29.711Z,99.90
2017-08-26T21:57:58.289Z,99.90
2017-08-26T22:00:26.782Z,99.90
2017-08-26T22:02:55.457Z,99.90
2017-08-26T22:05:23.963Z,99.90
2017-08-26T22:07:52.462Z,99.90
2017-08-26T22:10:21.428Z,99.90
2017-08-26T22:12:49.923Z,99.90
2017-08-26T22:15:18.224Z,99.90
2017-08-26T22:17:46.783Z,99.90
2017-08-26T22:20:15.288Z,99.90
2017-08-26T22:22:44.014Z,99.90
2017-08-26T22:25:12.545Z,99.90
2017-08-26T22:27:41.089Z,99.90
2017-08-26T22:30:09.586Z,99.90
2017-08-26T22:32:38.294Z,99.50
2017-08-26T22:35:06.816Z,98.90
2017-08-26T22:37:35.325Z,98.00
2017-08-26T22:40:03.779Z,97.50
2017-08-26T22:42:32.305Z,97.60
2017-08-26T22:45:00.842Z,97.20
2017-08-26T22:47:29.579Z,96.50
2017-08-26T22:49:58.078Z,96.40
2017-08-26T22:52:26.567Z,95.80
2017-08-26T22:54:54.913Z,95.60
2017-08-26T22:57:23.421Z,95.80
2017-08-26T22:59:51.925Z,96.00
2017-08-26T23:02:22.090Z,96.00
2017-08-26T23:04:50.590Z,96.10
2017-08-26T23:07:19.111Z,96.10
2017-08-26T23:09:47.618Z,96.60
2017-08-26T23:12:16.102Z,97.00
2017-08-26T23:14:44.667Z,97.40
2017-08-26T23:17:13.243Z,98.10
2017-08-26T23:19:41.758Z,98.20
2017-08-26T23:22:10.328Z,97.70
2017-08-26T23:24:38.892Z,97.50
2017-08-26T23:27:07.221Z,97.90
2017-08-26T23:29:35.723Z,97.70
2017-08-26T23:32:04.243Z,98.10
2017-08-26T23:34:32.576Z,98.50
2017-08-26T23:37:01.242Z,98.30
2017-08-26T23:39:29.714Z,98.80
2017-08-26T23:41:58.203Z,99.10
2017-08-26T23:44:26.702Z,98.90
2017-08-26T23:46:55.212Z,99.00
2017-08-26T23:49:23.559Z,99.00
2017-08-26T23:51:52.062Z,98.90
2017-08-26T23:54:20.596Z,98.70
2017-08-26T23:56:49.106Z,98.80
2017-08-26T23:59:17.640Z,99.10
